Time;durP1;ratioP1;P1;durP2;ratioP2;P2;SDS_P1;SDS_P2;PMS_P1;PMS_P2;Temp;Humidity;BMP_temperature;BMP_pressure;BME280_temperature;BME280_humidity;BME280_pressure;Samples;Min_cycle;Max_cycle;Signal;HPM_P1;HPM_P2
2022/07/04 00:01:17;;;;;;;5.13;2.27;;;19.70;87.30;;;;;;5051777;28;20511;-48
2022/07/04 00:03:44;;;;;;;3.40;1.60;;;19.70;87.80;;;;;;5064735;28;20480;-48
2022/07/04 00:06:10;;;;;;;4.57;1.93;;;19.60;86.70;;;;;;5054334;28;20495;-48
2022/07/04 00:08:37;;;;;;;3.37;1.87;;;19.60;86.60;;;;;;5051046;28;20478;-48
2022/07/04 00:11:04;;;;;;;2.60;2.00;;;19.50;87.50;;;;;;5054781;28;20474;-47
2022/07/04 00:13:31;;;;;;;2.30;1.97;;;19.40;88.60;;;;;;5058148;28;20486;-47
2022/07/04 00:15:59;;;;;;;4.00;1.87;;;19.20;88.50;;;;;;5058397;28;20467;-47
2022/07/04 00:18:25;;;;;;;3.30;1.67;;;19.10;88.40;;;;;;5055218;28;20486;-47
2022/07/04 00:20:53;;;;;;;2.20;1.50;;;19.00;87.70;;;;;;5055153;28;21322;-48
2022/07/04 00:23:20;;;;;;;4.80;2.20;;;19.00;87.80;;;;;;5057062;28;20471;-47
2022/07/04 00:25:46;;;;;;;6.03;2.10;;;19.00;87.80;;;;;;5055603;28;20474;-48
2022/07/04 00:28:13;;;;;;;4.03;2.27;;;19.00;88.00;;;;;;5048801;28;20693;-48
2022/07/04 00:30:40;;;;;;;3.50;1.97;;;18.80;88.70;;;;;;5062172;28;20487;-48
2022/07/04 00:33:11;;;;;;;2.47;2.07;;;18.70;88.50;;;;;;5061103;28;20483;-47
2022/07/04 00:35:39;;;;;;;5.03;1.90;;;;;;;;;;5048782;28;20494;-47
2022/07/04 00:38:05;;;;;;;6.53;2.00;;;18.60;88.80;;;;;;5057609;28;20486;-52
2022/07/04 00:40:32;;;;;;;2.30;2.00;;;18.60;88.50;;;;;;5059495;28;20485;-47
2022/07/04 00:43:02;;;;;;;3.00;1.73;;;18.50;88.60;;;;;;5058604;28;20475;-47
2022/07/04 00:45:28;;;;;;;2.70;2.00;;;18.50;88.30;;;;;;5065744;28;20614;-47
2022/07/04 00:47:55;;;;;;;3.80;1.77;;;18.50;89.10;;;;;;5058307;28;20992;-47
2022/07/04 00:50:24;;;;;;;11.63;2.20;;;18.30;89.70;;;;;;5061704;28;20483;-48
2022/07/04 00:52:52;;;;;;;9.40;4.90;;;18.30;90.10;;;;;;5060543;28;20467;-48
2022/07/04 00:55:19;;;;;;;2.83;2.40;;;18.20;89.50;;;;;;5059987;28;20479;-47
2022/07/04 00:57:46;;;;;;;2.17;1.97;;;18.00;89.80;;;;;;5048146;28;20483;-48
2022/07/04 01:00:14;;;;;;;2.50;2.30;;;17.90;90.00;;;;;;5057831;28;20479;-47
2022/07/04 01:02:40;;;;;;;2.43;2.03;;;17.90;89.90;;;;;;5058578;28;20474;-49
2022/07/04 01:05:08;;;;;;;2.23;1.73;;;17.80;89.90;;;;;;5058282;28;20471;-47
2022/07/04 01:07:37;;;;;;;3.53;2.23;;;17.80;89.80;;;;;;5058156;28;20486;-47
2022/07/04 01:10:05;;;;;;;2.30;1.83;;;17.70;90.00;;;;;;5046567;28;20483;-47
2022/07/04 01:12:31;;;;;;;2.30;1.77;;;17.70;89.70;;;;;;5062474;28;20499;-47
2022/07/04 01:14:58;;;;;;;2.23;2.00;;;17.70;89.00;;;;;;5059698;28;20475;-47
2022/07/04 01:17:25;;;;;;;2.63;2.43;;;17.70;89.50;;;;;;5031179;28;20482;-47
2022/07/04 01:19:52;;;;;;;5.30;2.03;;;17.40;90.40;;;;;;5055776;28;20475;-48
2022/07/04 01:22:22;;;;;;;6.27;2.27;;;17.40;90.40;;;;;;5059149;28;21559;-47
2022/07/04 01:24:49;;;;;;;2.00;1.57;;;17.30;90.80;;;;;;5046834;28;20560;-46
2022/07/04 01:27:16;;;;;;;6.30;2.70;;;17.10;90.50;;;;;;5056767;28;20495;-47
2022/07/04 01:29:43;;;;;;;4.53;2.03;;;17.00;90.50;;;;;;5059810;28;21211;-47
2022/07/04 01:32:10;;;;;;;10.63;2.10;;;16.90;90.80;;;;;;5058207;28;20511;-47
2022/07/04 01:34:38;;;;;;;3.47;2.33;;;17.00;90.70;;;;;;5059515;28;20849;-46
2022/07/04 01:37:05;;;;;;;2.37;2.17;;;17.00;90.70;;;;;;5056964;28;20482;-46
2022/07/04 01:39:33;;;;;;;3.60;2.00;;;17.00;90.70;;;;;;5057674;28;20499;-46
2022/07/04 01:42:00;;;;;;;3.93;1.83;;;17.00;90.50;;;;;;5056407;28;20467;-46
2022/07/04 01:44:27;;;;;;;2.57;2.23;;;17.00;90.50;;;;;;5057774;28;20489;-46
2022/07/04 01:46:54;;;;;;;3.70;2.27;;;17.00;90.50;;;;;;5056473;28;20502;-46
2022/07/04 01:49:21;;;;;;;5.57;1.97;;;16.90;90.50;;;;;;5056813;28;20576;-46
2022/07/04 01:51:48;;;;;;;2.87;2.17;;;16.90;90.70;;;;;;5053744;28;20487;-46
2022/07/04 01:54:15;;;;;;;2.90;2.40;;;16.80;90.70;;;;;;5048113;28;20479;-47
2022/07/04 01:56:43;;;;;;;8.00;2.70;;;16.70;90.60;;;;;;5060210;28;20479;-47
2022/07/04 01:59:10;;;;;;;3.90;1.80;;;16.70;90.90;;;;;;5056628;28;20482;-46
2022/07/04 02:01:37;;;;;;;4.63;2.47;;;16.70;90.50;;;;;;5058527;28;20479;-49
2022/07/04 02:04:05;;;;;;;4.00;1.90;;;16.50;90.70;;;;;;5059057;28;20455;-46
2022/07/04 02:06:33;;;;;;;2.90;2.40;;;16.50;90.70;;;;;;5054634;28;20490;-47
2022/07/04 02:09:19;;;;;;;4.30;1.77;;;16.50;90.40;;;;;;5057854;28;21121;-47
2022/07/04 02:14:33;;;;;;;2.63;2.10;;;16.40;90.90;;;;;;5059093;28;20506;-46
2022/07/04 02:17:00;;;;;;;4.60;2.47;;;16.40;90.80;;;;;;5055330;28;21256;-47
2022/07/04 02:19:26;;;;;;;3.67;2.50;;;16.40;91.10;;;;;;5051924;28;20943;-47
2022/07/04 02:21:53;;;;;;;6.23;2.00;;;16.30;90.60;;;;;;5044385;28;20484;-47
2022/07/04 02:24:20;;;;;;;2.97;1.93;;;16.30;90.60;;;;;;5038158;28;20479;-47
2022/07/04 02:26:49;;;;;;;9.20;2.17;;;16.20;90.70;;;;;;5042525;28;20505;-47
2022/07/04 02:29:16;;;;;;;2.30;2.10;;;16.20;90.70;;;;;;5046375;28;20490;-47
2022/07/04 02:31:43;;;;;;;6.83;2.30;;;16.10;90.90;;;;;;5057208;28;20984;-47
2022/07/04 02:34:10;;;;;;;2.53;2.33;;;16.10;90.90;;;;;;5057461;28;20484;-47
2022/07/04 02:36:36;;;;;;;4.40;2.60;;;16.00;91.00;;;;;;5052634;28;20485;-47
2022/07/04 02:39:05;;;;;;;2.50;2.20;;;15.90;91.30;;;;;;5041807;28;20487;-48
2022/07/04 02:41:33;;;;;;;3.57;1.90;;;15.90;91.30;;;;;;5055696;28;20565;-47
2022/07/04 02:44:01;;;;;;;5.50;2.57;;;15.90;91.70;;;;;;5059727;28;21016;-47
2022/07/04 02:46:28;;;;;;;8.60;2.87;;;15.90;91.60;;;;;;5060641;28;20996;-47
2022/07/04 02:48:55;;;;;;;2.40;2.20;;;15.90;91.40;;;;;;5060951;28;20486;-47
2022/07/04 02:51:21;;;;;;;3.43;2.13;;;15.60;91.30;;;;;;5054619;28;20475;-47
2022/07/04 02:53:48;;;;;;;3.17;2.20;;;15.60;91.20;;;;;;5052411;28;20486;-47
2022/07/04 02:56:15;;;;;;;3.37;2.37;;;15.50;91.10;;;;;;5059902;28;20487;-47
2022/07/04 02:58:41;;;;;;;2.10;1.90;;;15.50;91.10;;;;;;5045199;28;20553;-47
2022/07/04 03:01:10;;;;;;;2.53;2.33;;;15.40;91.30;;;;;;5064311;28;20485;-47
2022/07/04 03:03:37;;;;;;;3.67;2.23;;;15.40;91.60;;;;;;5061256;28;20482;-48
2022/07/04 03:06:03;;;;;;;9.13;2.80;;;15.20;92.00;;;;;;5054108;28;20470;-47
2022/07/04 03:08:30;;;;;;;6.23;2.00;;;15.20;92.30;;;;;;5032197;28;20971;-47
2022/07/04 03:10:57;;;;;;;4.20;2.90;;;15.10;92.60;;;;;;5049769;28;20873;-47
2022/07/04 03:13:24;;;;;;;4.97;2.40;;;15.00;93.10;;;;;;5015538;28;21211;-47
2022/07/04 03:15:51;;;;;;;5.57;2.67;;;15.00;92.80;;;;;;5040674;28;20889;-47
2022/07/04 03:18:19;;;;;;;4.50;4.13;;;15.10;92.50;;;;;;5031835;28;20837;-47
2022/07/04 03:20:46;;;;;;;5.00;2.70;;;15.10;92.00;;;;;;5022699;28;20478;-47
2022/07/04 03:23:13;;;;;;;3.50;3.20;;;15.20;91.80;;;;;;5027283;28;20671;-47
2022/07/04 03:25:40;;;;;;;3.90;2.47;;;15.20;91.60;;;;;;5032225;28;20486;-47
2022/07/04 03:28:08;;;;;;;8.53;2.80;;;15.10;91.80;;;;;;5048780;28;20583;-48
2022/07/04 03:30:35;;;;;;;4.50;3.00;;;15.10;91.90;;;;;;5022475;28;20479;-48
2022/07/04 03:33:02;;;;;;;4.07;3.23;;;15.10;91.80;;;;;;5033340;28;20554;-47
2022/07/04 03:35:30;;;;;;;5.53;2.50;;;15.10;91.80;;;;;;5040620;28;21248;-47
2022/07/04 03:37:57;;;;;;;6.43;3.10;;;15.10;91.80;;;;;;5014176;28;20486;-47
2022/07/04 03:40:24;;;;;;;3.27;2.97;;;15.10;91.50;;;;;;5056195;28;21038;-47
2022/07/04 03:42:51;;;;;;;5.80;2.00;;;15.10;91.50;;;;;;5047625;28;20545;-47
2022/07/04 03:45:18;;;;;;;4.13;3.57;;;15.00;91.30;;;;;;5050265;28;20509;-47
2022/07/04 03:47:44;;;;;;;5.27;2.30;;;14.90;91.30;;;;;;5043549;28;20479;-47
2022/07/04 03:50:11;;;;;;;13.37;2.80;;;14.80;92.00;;;;;;5058098;28;20483;-47
2022/07/04 03:52:39;;;;;;;2.93;2.70;;;14.70;91.70;;;;;;5050844;28;20494;-47
2022/07/04 03:55:07;;;;;;;4.90;3.43;;;14.80;91.80;;;;;;5056708;28;20948;-47
2022/07/04 03:57:35;;;;;;;3.30;3.00;;;14.80;91.80;;;;;;5038780;28;20478;-47
2022/07/04 04:00:02;;;;;;;2.67;2.47;;;14.80;91.90;;;;;;5034023;28;20477;-47
2022/07/04 04:02:29;;;;;;;2.67;2.37;;;14.80;91.90;;;;;;5028746;28;20862;-47
2022/07/04 04:07:36;;;;;;;2.83;2.37;;;14.70;91.70;;;;;;5024722;28;20841;-47
2022/07/04 04:10:06;;;;;;;9.47;2.70;;;14.70;91.60;;;;;;5029918;28;20525;-48
2022/07/04 04:12:32;;;;;;;5.03;3.13;;;14.70;91.60;;;;;;5059360;28;20489;-47
2022/07/04 04:14:59;;;;;;;3.80;2.67;;;14.80;91.80;;;;;;5062474;28;20493;-48
2022/07/04 04:17:26;;;;;;;9.03;3.27;;;14.70;91.80;;;;;;5057836;28;20498;-48
2022/07/04 04:19:53;;;;;;;4.30;3.20;;;14.80;91.60;;;;;;5056249;28;20494;-48
2022/07/04 04:22:19;;;;;;;4.53;3.53;;;14.80;91.90;;;;;;5060163;28;20486;-48
2022/07/04 04:24:46;;;;;;;4.10;2.30;;;14.80;91.70;;;;;;5050656;28;20986;-51
2022/07/04 04:27:14;;;;;;;7.70;3.20;;;14.80;91.80;;;;;;5061804;28;21087;-47
2022/07/04 04:29:41;;;;;;;2.90;2.70;;;14.80;91.90;;;;;;5059073;28;20493;-47
2022/07/04 04:32:08;;;;;;;5.93;3.20;;;14.80;92.20;;;;;;5065841;28;20534;-47
2022/07/04 04:34:35;;;;;;;4.90;2.53;;;14.80;92.10;;;;;;5058206;28;20914;-47
2022/07/04 04:37:02;;;;;;;3.60;3.30;;;14.70;92.50;;;;;;5059167;28;20482;-47
2022/07/04 04:39:29;;;;;;;4.20;2.70;;;14.70;92.80;;;;;;5059757;28;20489;-47
2022/07/04 04:41:55;;;;;;;3.50;2.27;;;14.60;93.10;;;;;;5049566;28;20483;-47
2022/07/04 04:44:24;;;;;;;6.30;3.00;;;14.70;93.40;;;;;;5058841;28;20479;-47
2022/07/04 04:46:50;;;;;;;7.17;2.43;;;14.50;94.30;;;;;;5058266;28;20487;-47
2022/07/04 04:49:18;;;;;;;4.27;3.20;;;14.50;94.80;;;;;;5062447;28;20670;-47
2022/07/04 04:51:45;;;;;;;5.90;3.47;;;14.50;95.10;;;;;;5057503;28;20470;-47
2022/07/04 04:54:11;;;;;;;5.27;3.23;;;14.60;95.80;;;;;;5057029;28;20475;-47
2022/07/04 04:56:38;;;;;;;4.30;3.90;;;14.60;96.10;;;;;;5058272;28;20498;-47
2022/07/04 04:59:05;;;;;;;4.67;4.27;;;14.70;96.30;;;;;;5045666;28;20483;-47
2022/07/04 05:01:33;;;;;;;3.27;2.97;;;14.80;96.30;;;;;;5060625;28;20486;-47
2022/07/04 05:04:00;;;;;;;4.00;3.60;;;15.00;96.70;;;;;;5053569;28;20510;-47
2022/07/04 05:06:27;;;;;;;4.83;4.43;;;15.10;96.80;;;;;;5053939;28;20490;-47
2022/07/04 05:08:54;;;;;;;5.63;3.67;;;15.30;96.80;;;;;;5063680;28;20483;-47
2022/07/04 05:11:20;;;;;;;4.00;3.60;;;15.40;96.90;;;;;;5057216;28;20494;-48
2022/07/04 05:13:47;;;;;;;5.17;3.53;;;15.40;97.20;;;;;;5058852;28;20463;-48
2022/07/04 05:16:14;;;;;;;4.13;3.43;;;15.60;97.20;;;;;;5057188;28;21867;-47
2022/07/04 05:18:42;;;;;;;4.00;3.20;;;15.90;96.40;;;;;;5058872;28;21004;-47
2022/07/04 05:21:09;;;;;;;4.50;3.50;;;16.00;96.30;;;;;;5057105;28;21019;-48
2022/07/04 05:23:35;;;;;;;6.30;2.70;;;16.20;96.00;;;;;;5057401;28;20482;-48
2022/07/04 05:26:02;;;;;;;4.40;4.00;;;16.20;96.30;;;;;;5056325;28;20486;-48
2022/07/04 05:28:29;;;;;;;4.40;3.50;;;16.40;96.30;;;;;;5055170;28;20499;-51
2022/07/04 05:30:55;;;;;;;5.87;3.70;;;16.50;96.50;;;;;;5050318;28;21432;-48
2022/07/04 05:33:22;;;;;;;3.97;3.67;;;16.50;96.70;;;;;;5058382;28;20490;-49
2022/07/04 05:35:50;;;;;;;5.20;4.67;;;16.70;96.50;;;;;;5059703;28;20474;-48
2022/07/04 05:38:18;;;;;;;6.83;3.80;;;16.80;97.00;;;;;;5050943;28;20478;-48
2022/07/04 05:40:44;;;;;;;4.77;3.87;;;17.00;97.00;;;;;;5050753;28;20485;-49
2022/07/04 05:43:11;;;;;;;5.20;4.40;;;17.10;97.00;;;;;;5058061;28;20475;-48
2022/07/04 05:45:38;;;;;;;5.20;3.73;;;17.30;96.80;;;;;;5059786;28;21102;-48
2022/07/04 05:48:05;;;;;;;8.00;4.23;;;17.40;96.60;;;;;;5056127;28;20493;-48
2022/07/04 05:50:32;;;;;;;6.10;4.17;;;17.50;96.60;;;;;;5051836;28;20483;-48
2022/07/04 05:53:00;;;;;;;8.80;3.80;;;17.90;96.30;;;;;;5020071;28;20486;-49
2022/07/04 05:55:27;;;;;;;8.13;4.87;;;18.00;95.30;;;;;;5048997;28;21055;-48
2022/07/04 05:57:54;;;;;;;4.20;3.80;;;18.30;94.60;;;;;;5055457;28;21138;-48
2022/07/04 06:00:21;;;;;;;6.27;4.80;;;18.50;94.40;;;;;;5058285;28;20964;-48
2022/07/04 06:02:47;;;;;;;6.07;4.23;;;18.60;94.20;;;;;;5057962;28;20830;-48
2022/07/04 06:05:14;;;;;;;5.90;4.37;;;18.70;93.80;;;;;;5053366;28;20517;-48
2022/07/04 06:07:41;;;;;;;7.50;4.30;;;18.90;93.70;;;;;;5055917;28;20489;-48
2022/07/04 06:10:10;;;;;;;4.80;3.97;;;19.00;93.70;;;;;;5057531;28;20483;-48
2022/07/04 06:12:36;;;;;;;8.17;3.77;;;19.20;93.80;;;;;;5048263;28;20501;-48
2022/07/04 06:15:05;;;;;;;6.03;4.27;;;19.50;93.70;;;;;;5056034;28;20803;-48
2022/07/04 06:17:31;;;;;;;6.80;4.07;;;19.70;93.10;;;;;;5045383;28;20506;-48
2022/07/04 06:19:58;;;;;;;4.93;3.70;;;19.80;93.40;;;;;;5052833;28;20952;-49
2022/07/04 06:22:25;;;;;;;4.50;4.10;;;20.00;93.30;;;;;;5057191;28;20889;-49
2022/07/04 06:24:51;;;;;;;8.23;4.10;;;20.30;92.10;;;;;;5058941;28;20469;-48
2022/07/04 06:27:19;;;;;;;4.87;3.87;;;20.40;92.20;;;;;;5057927;28;20490;-48
2022/07/04 06:29:46;;;;;;;12.80;3.80;;;20.50;91.80;;;;;;5057982;28;20474;-48
2022/07/04 06:32:13;;;;;;;4.63;3.47;;;20.50;91.90;;;;;;5057274;28;20479;-48
2022/07/04 06:37:32;;;;;;;6.47;3.67;;;20.80;90.60;;;;;;5007410;28;20539;-49
2022/07/04 06:39:59;;;;;;;5.47;3.60;;;20.90;90.70;;;;;;5061171;28;20486;-49
2022/07/04 06:42:27;;;;;;;3.70;3.40;;;21.00;90.70;;;;;;5058069;28;20487;-47
2022/07/04 06:44:54;;;;;;;4.23;3.60;;;21.10;89.80;;;;;;5056521;28;20474;-48
2022/07/04 06:47:20;;;;;;;3.20;2.97;;;21.20;89.00;;;;;;5056889;28;20471;-48
2022/07/04 06:49:47;;;;;;;5.63;3.70;;;21.40;88.80;;;;;;5056816;28;21056;-48
2022/07/04 06:52:14;;;;;;;4.60;2.80;;;21.50;89.00;;;;;;5044356;28;20495;-48
2022/07/04 06:54:40;;;;;;;5.47;3.70;;;21.70;88.00;;;;;;5058344;28;20498;-48
2022/07/04 06:57:07;;;;;;;5.03;3.90;;;21.90;88.10;;;;;;5057244;28;20966;-48
2022/07/04 06:59:35;;;;;;;10.40;5.53;;;22.10;88.40;;;;;;5057343;28;20653;-48
2022/07/04 07:02:02;;;;;;;4.33;3.37;;;22.30;87.70;;;;;;5058659;28;20486;-49
2022/07/04 07:04:29;;;;;;;3.40;2.97;;;22.50;87.30;;;;;;5058417;28;20490;-48
2022/07/04 07:06:55;;;;;;;3.67;3.23;;;22.70;86.10;;;;;;5057167;28;20489;-51
2022/07/04 07:09:22;;;;;;;4.23;3.10;;;22.90;86.60;;;;;;5055017;28;20513;-48
2022/07/04 07:11:49;;;;;;;4.80;3.50;;;23.00;85.00;;;;;;5059211;28;20487;-48
2022/07/04 07:14:15;;;;;;;5.60;3.23;;;23.20;84.80;;;;;;5059393;28;20952;-49
2022/07/04 07:16:43;;;;;;;4.07;3.60;;;23.40;85.40;;;;;;5057644;28;20483;-48
2022/07/04 07:19:10;;;;;;;5.13;2.60;;;23.50;84.70;;;;;;5053542;28;20496;-48
2022/07/04 07:21:37;;;;;;;4.30;2.43;;;23.60;83.90;;;;;;5058938;28;20479;-49
2022/07/04 07:24:04;;;;;;;8.67;3.33;;;23.90;82.10;;;;;;5058124;28;20987;-48
2022/07/04 07:26:31;;;;;;;5.73;2.80;;;24.10;82.50;;;;;;5058029;28;20570;-48
2022/07/04 07:28:58;;;;;;;10.30;2.77;;;24.10;82.10;;;;;;5058937;28;20482;-48
2022/07/04 07:31:24;;;;;;;3.00;2.70;;;24.30;81.90;;;;;;5061644;28;20471;-48
2022/07/04 07:33:52;;;;;;;4.63;2.90;;;24.60;80.80;;;;;;5059996;28;20479;-48
2022/07/04 07:36:19;;;;;;;5.90;3.13;;;24.70;80.50;;;;;;5059574;28;20483;-48
2022/07/04 07:38:46;;;;;;;6.93;2.70;;;24.90;81.10;;;;;;5061370;28;20482;-48
2022/07/04 07:41:12;;;;;;;7.13;2.43;;;25.10;80.60;;;;;;5060197;28;20478;-48
2022/07/04 07:43:39;;;;;;;3.50;2.20;;;25.10;80.60;;;;;;5059094;28;20487;-48
2022/07/04 07:46:06;;;;;;;4.13;2.87;;;25.30;78.70;;;;;;5059760;28;20987;-49
2022/07/04 07:48:33;;;;;;;2.40;2.07;;;25.30;78.50;;;;;;5059763;28;20487;-49
2022/07/04 07:51:01;;;;;;;7.00;2.50;;;25.50;77.50;;;;;;5061275;28;21005;-48
2022/07/04 07:53:28;;;;;;;2.90;2.37;;;25.60;78.80;;;;;;5060208;28;20482;-48
2022/07/04 07:55:55;;;;;;;7.00;2.60;;;25.50;74.30;;;;;;5058639;28;20498;-49
2022/07/04 07:58:21;;;;;;;3.80;3.17;;;25.20;74.40;;;;;;5059843;28;20487;-49
2022/07/04 08:00:48;;;;;;;3.30;2.57;;;25.10;76.60;;;;;;5059956;28;20494;-49
2022/07/04 08:06:01;;;;;;;2.60;1.87;;;25.40;81.00;;;;;;5061144;28;20531;-48
2022/07/04 08:08:28;;;;;;;3.23;2.23;;;25.70;76.10;;;;;;5060288;28;20955;-48
2022/07/04 08:10:54;;;;;;;3.20;1.70;;;26.00;75.30;;;;;;5064586;28;20490;-48
2022/07/04 08:13:21;;;;;;;4.00;2.10;;;26.20;74.90;;;;;;5059354;28;21286;-48
2022/07/04 08:15:48;;;;;;;3.97;1.90;;;26.30;73.60;;;;;;5064060;28;20486;-48
2022/07/04 08:18:16;;;;;;;4.53;2.10;;;26.30;72.40;;;;;;5062603;28;21003;-49
2022/07/04 08:20:43;;;;;;;3.17;1.70;;;26.40;70.80;;;;;;5059411;28;20739;-48
2022/07/04 08:23:12;;;;;;;3.17;1.80;;;26.70;70.20;;;;;;5060441;28;20475;-48
2022/07/04 08:25:38;;;;;;;3.73;1.67;;;26.50;67.00;;;;;;5063528;28;20494;-48
2022/07/04 08:28:05;;;;;;;4.73;1.80;;;26.60;72.50;;;;;;5056959;28;20479;-49
2022/07/04 08:30:32;;;;;;;5.73;1.93;;;26.50;67.40;;;;;;5058372;28;20449;-52
2022/07/04 08:32:58;;;;;;;4.73;1.30;;;26.50;70.50;;;;;;5056496;28;20490;-52
2022/07/04 08:35:25;;;;;;;2.20;1.77;;;26.60;70.80;;;;;;5060027;28;20483;-52
2022/07/04 08:37:53;;;;;;;3.50;2.07;;;26.30;67.60;;;;;;5058701;28;20479;-52
2022/07/04 08:40:22;;;;;;;5.30;2.43;;;26.30;71.60;;;;;;5060207;28;21002;-52
2022/07/04 08:42:50;;;;;;;5.80;1.33;;;26.20;70.60;;;;;;5062840;28;20478;-52
2022/07/04 08:45:18;;;;;;;3.77;1.90;;;26.20;70.50;;;;;;5059880;28;20479;-51
2022/07/04 08:47:49;;;;;;;2.60;1.60;;;26.20;68.60;;;;;;5053406;28;20498;-50
2022/07/04 08:50:23;;;;;;;6.33;1.93;;;26.10;70.80;;;;;;5062165;28;20478;-52
2022/07/04 08:52:55;;;;;;;2.77;1.50;;;26.20;68.60;;;;;;5057015;28;20478;-51
2022/07/04 08:58:29;;;;;;;3.73;2.13;;;26.40;73.30;;;;;;5047070;28;20493;-51
2022/07/04 09:00:56;;;;;;;2.10;1.40;;;26.70;70.70;;;;;;5057361;28;20980;-52
2022/07/04 09:03:24;;;;;;;2.30;1.77;;;27.10;71.30;;;;;;5050794;28;20483;-53
2022/07/04 09:05:51;;;;;;;3.03;1.97;;;27.20;70.20;;;;;;5057879;28;20925;-53
2022/07/04 09:08:18;;;;;;;2.20;1.40;;;27.40;69.60;;;;;;5061709;28;20486;-53
2022/07/04 09:10:47;;;;;;;3.10;2.23;;;27.60;69.60;;;;;;5060257;28;20485;-53
2022/07/04 09:13:15;;;;;;;2.00;1.60;;;27.80;70.80;;;;;;5062931;28;20837;-54
2022/07/04 09:15:43;;;;;;;3.33;1.87;;;28.00;67.70;;;;;;5056486;28;20475;-53
2022/07/04 09:18:21;;;;;;;2.33;1.60;;;28.10;69.50;;;;;;5060934;28;20483;-53
2022/07/04 09:20:49;;;;;;;2.00;1.20;;;28.10;68.20;;;;;;5053944;28;20493;-51
2022/07/04 09:23:19;;;;;;;4.07;1.90;;;27.60;63.40;;;;;;5060708;28;20471;-52
2022/07/04 09:25:48;;;;;;;2.77;1.30;;;27.30;62.40;;;;;;5058986;28;20511;-54
2022/07/04 09:28:28;;;;;;;4.23;1.40;;;27.50;66.70;;;;;;5064410;28;21107;-52
2022/07/04 09:30:55;;;;;;;2.50;1.40;;;27.50;67.50;;;;;;5056357;28;20525;-53
2022/07/04 09:33:23;;;;;;;1.80;1.10;;;27.90;65.20;;;;;;5063747;28;20450;-53
2022/07/04 09:35:50;;;;;;;4.47;2.10;;;27.90;63.50;;;;;;5061271;28;20988;-53
2022/07/04 09:38:23;;;;;;;2.27;1.80;;;27.90;65.20;;;;;;5056189;28;20482;-53
2022/07/04 09:43:58;;;;;;;3.33;1.80;;;28.20;65.20;;;;;;5063824;28;21097;-55
2022/07/04 09:46:25;;;;;;;3.27;1.90;;;28.40;64.90;;;;;;5045217;28;20465;-52
2022/07/04 09:48:52;;;;;;;5.30;2.00;;;28.50;63.40;;;;;;5057735;28;20565;-52
2022/07/04 09:51:39;;;;;;;2.23;1.40;;;28.60;66.20;;;;;;5060041;28;20486;-53
2022/07/04 09:54:26;;;;;;;2.40;1.50;;;28.80;62.50;;;;;;5028643;28;20445;-52
2022/07/04 09:56:56;;;;;;;2.23;1.90;;;28.70;63.30;;;;;;5054815;28;20474;-53
2022/07/04 09:59:24;;;;;;;2.63;1.87;;;28.90;66.70;;;;;;5061930;28;20480;-53
2022/07/04 10:01:51;;;;;;;2.20;1.80;;;29.10;64.40;;;;;;5057862;28;20474;-53
2022/07/04 10:04:21;;;;;;;3.30;1.93;;;28.80;60.60;;;;;;5060142;28;20965;-53
2022/07/04 10:06:47;;;;;;;1.97;1.40;;;28.60;61.10;;;;;;5062684;28;20482;-53
2022/07/04 10:09:16;;;;;;;2.57;1.47;;;28.70;66.00;;;;;;5057120;28;20450;-52
2022/07/04 10:11:45;;;;;;;6.83;1.63;;;28.60;62.20;;;;;;5061261;28;20483;-53
2022/07/04 10:14:15;;;;;;;1.83;1.33;;;28.50;64.60;;;;;;5056329;28;20494;-53
2022/07/04 10:16:43;;;;;;;6.13;1.87;;;28.60;63.80;;;;;;5055702;28;20457;-53
2022/07/04 10:19:12;;;;;;;1.93;1.43;;;28.40;63.50;;;;;;5056985;28;20470;-54
2022/07/04 10:21:39;;;;;;;4.73;1.37;;;28.50;62.20;;;;;;5057699;28;20467;-54
2022/07/04 10:24:06;;;;;;;3.80;1.47;;;28.80;64.80;;;;;;5062944;28;20480;-53
2022/07/04 10:26:33;;;;;;;2.90;1.63;;;29.10;62.00;;;;;;5057610;28;20489;-53
2022/07/04 10:29:00;;;;;;;4.73;1.67;;;28.80;61.10;;;;;;5057336;28;20499;-53
2022/07/04 10:31:31;;;;;;;2.80;1.87;;;28.80;61.50;;;;;;5065332;28;20480;-52
2022/07/04 10:34:00;;;;;;;4.87;1.83;;;28.50;59.90;;;;;;5059552;28;20486;-53
2022/07/04 10:36:30;;;;;;;2.70;1.50;;;28.50;61.60;;;;;;5057039;28;21349;-54
2022/07/04 10:38:59;;;;;;;2.53;1.73;;;28.20;62.00;;;;;;5058157;28;20474;-54
2022/07/04 10:41:27;;;;;;;3.63;1.90;;;28.30;66.80;;;;;;5051662;28;20957;-54
2022/07/04 10:44:02;;;;;;;2.80;1.57;;;28.50;65.40;;;;;;5059699;28;20498;-54
2022/07/04 10:46:50;;;;;;;2.87;1.23;;;28.80;63.00;;;;;;5046065;28;20457;-54
2022/07/04 10:49:20;;;;;;;9.17;2.10;;;29.10;63.30;;;;;;5050746;28;20474;-53
2022/07/04 10:51:48;;;;;;;3.00;1.17;;;29.20;64.20;;;;;;5055790;28;20483;-53
2022/07/04 10:54:17;;;;;;;5.00;1.37;;;29.30;64.20;;;;;;5057530;28;20489;-53
2022/07/04 10:56:46;;;;;;;3.27;1.33;;;29.30;62.60;;;;;;5057207;28;20445;-55
2022/07/04 10:59:16;;;;;;;2.23;1.20;;;29.20;62.10;;;;;;5029091;28;20465;-53
2022/07/04 11:01:50;;;;;;;3.60;1.60;;;29.30;62.80;;;;;;5031386;28;20475;-53
2022/07/04 11:04:47;;;;;;;4.13;2.67;;;29.40;62.10;;;;;;5044201;28;20470;-54
2022/07/04 11:07:14;;;;;;;2.40;1.50;;;29.50;63.40;;;;;;5055493;28;20489;-53
2022/07/04 11:09:42;;;;;;;2.93;1.53;;;29.60;60.90;;;;;;5027280;28;20456;-52
2022/07/04 11:12:10;;;;;;;2.30;1.20;;;29.50;59.80;;;;;;5060975;28;20532;-54
2022/07/04 11:14:39;;;;;;;2.20;1.30;;;29.30;59.40;;;;;;5056829;28;20536;-53
2022/07/04 11:17:08;;;;;;;3.07;1.63;;;29.30;61.60;;;;;;5060201;28;20449;-55
2022/07/04 11:19:35;;;;;;;7.00;1.73;;;29.50;61.30;;;;;;5058149;28;20454;-54
2022/07/04 11:22:04;;;;;;;1.97;1.30;;;29.60;62.80;;;;;;5056032;28;20471;-55
2022/07/04 11:24:30;;;;;;;2.20;1.30;;;29.80;62.90;;;;;;5060074;28;20522;-53
2022/07/04 11:26:57;;;;;;;3.30;1.17;;;30.00;62.00;;;;;;5059603;28;20456;-53
2022/07/04 11:29:25;;;;;;;1.93;1.40;;;29.90;59.50;;;;;;5062938;28;20549;-55
2022/07/04 11:31:53;;;;;;;3.70;1.43;;;29.90;59.00;;;;;;5052443;28;20973;-54
2022/07/04 11:34:21;;;;;;;2.33;1.37;;;29.90;56.00;;;;;;5055641;28;20482;-52
2022/07/04 11:36:50;;;;;;;3.10;1.50;;;29.80;56.70;;;;;;5063885;28;20479;-53
2022/07/04 11:39:19;;;;;;;4.10;2.60;;;29.80;58.80;;;;;;5057758;28;20487;-55
2022/07/04 11:47:20;;;;;;;2.60;1.70;;;29.90;55.10;;;;;;5047517;28;20493;-52
2022/07/04 11:49:50;;;;;;;2.70;1.10;;;29.90;58.30;;;;;;5060300;28;20489;-53
2022/07/04 11:52:21;;;;;;;2.20;1.50;;;29.90;59.20;;;;;;5031349;28;21075;-54
2022/07/04 11:54:49;;;;;;;3.20;1.60;;;29.90;56.10;;;;;;5060667;28;20952;-55
2022/07/04 11:57:22;;;;;;;2.67;1.47;;;29.70;55.20;;;;;;5061580;28;20470;-53
2022/07/04 11:59:54;;;;;;;2.37;1.47;;;29.60;56.90;;;;;;5062101;28;20582;-53
2022/07/04 12:02:22;;;;;;;2.80;1.80;;;29.60;55.50;;;;;;5060732;28;20461;-53
2022/07/04 12:04:50;;;;;;;2.67;1.67;;;29.30;55.40;;;;;;5061401;28;20457;-53
2022/07/04 12:07:18;;;;;;;2.80;1.50;;;29.10;57.00;;;;;;5057775;28;20486;-52
2022/07/04 12:09:46;;;;;;;3.20;1.40;;;28.90;57.40;;;;;;5033434;28;20529;-58
2022/07/04 12:12:15;;;;;;;2.53;2.23;;;28.90;56.20;;;;;;5052808;28;20990;-53
2022/07/04 12:14:57;;;;;;;4.00;1.90;;;;;;;;;;5066229;28;21049;-54
2022/07/04 12:17:30;;;;;;;4.00;1.50;;;28.80;56.40;;;;;;5048455;28;20555;-57
2022/07/04 12:19:59;;;;;;;2.73;1.73;;;29.10;60.20;;;;;;5060421;28;20480;-54
2022/07/04 12:22:33;;;;;;;5.53;2.43;;;29.20;60.30;;;;;;5058665;28;20487;-53
2022/07/04 12:25:01;;;;;;;2.53;1.80;;;29.70;57.70;;;;;;5061099;28;20498;-55
2022/07/04 12:27:28;;;;;;;3.40;1.53;;;29.90;57.30;;;;;;5055955;28;20453;-55
2022/07/04 12:29:57;;;;;;;2.87;2.07;;;30.00;57.30;;;;;;5061336;28;20462;-53
2022/07/04 12:32:24;;;;;;;2.80;1.90;;;30.30;59.10;;;;;;5059629;28;20483;-53
2022/07/04 12:34:51;;;;;;;3.50;1.77;;;30.40;57.60;;;;;;5059976;28;20495;-54
2022/07/04 12:37:19;;;;;;;2.60;1.63;;;30.50;56.40;;;;;;5058842;28;20450;-52
2022/07/04 12:39:46;;;;;;;3.30;1.80;;;30.60;57.10;;;;;;5063237;28;20449;-53
2022/07/04 12:42:15;;;;;;;4.10;1.40;;;30.70;57.60;;;;;;5059040;28;20475;-54
2022/07/04 12:44:42;;;;;;;3.43;1.70;;;30.70;55.00;;;;;;5060879;28;20475;-54
2022/07/04 12:47:10;;;;;;;2.63;1.73;;;30.80;55.30;;;;;;5058416;28;20885;-54
2022/07/04 12:49:37;;;;;;;2.50;1.50;;;30.70;53.70;;;;;;5059098;28;20461;-53
2022/07/04 12:52:06;;;;;;;4.83;1.40;;;30.50;52.80;;;;;;5060282;28;20487;-53
2022/07/04 12:54:35;;;;;;;2.37;1.47;;;30.30;54.80;;;;;;5062864;28;21020;-53
2022/07/04 12:57:19;;;;;;;2.00;1.40;;;30.30;55.20;;;;;;5057353;28;20490;-53
2022/07/04 12:59:46;;;;;;;3.90;1.30;;;30.20;54.10;;;;;;5060132;28;20951;-54
2022/07/04 13:02:14;;;;;;;3.47;1.77;;;30.30;56.80;;;;;;5057876;28;20445;-53
2022/07/04 13:04:41;;;;;;;4.47;1.40;;;30.40;57.10;;;;;;5060049;28;20489;-53
2022/07/04 13:07:18;;;;;;;3.23;1.40;;;30.50;54.30;;;;;;5056335;28;20490;-53
2022/07/04 13:09:47;;;;;;;3.27;1.40;;;30.60;55.10;;;;;;5058441;28;20628;-53
2022/07/04 13:12:25;;;;;;;4.77;1.70;;;30.60;54.40;;;;;;5059403;28;20468;-53
2022/07/04 13:14:52;;;;;;;3.67;2.03;;;30.60;54.40;;;;;;5047224;28;20469;-55